sensor_id;sensor_type;location;lat;lon;timestamp;pressure;altitude;pressure_sealevel;temperature;humidity
36454;BME280;22478;51.740;-1.314;2023-03-25T00:01:58;98562.75;;;0.93;100.00
36454;BME280;22478;51.740;-1.314;2023-03-25T00:04:25;98550.68;;;0.55;100.00
36454;BME280;22478;51.740;-1.314;2023-03-25T00:06:53;98563.48;;;-0.65;100.00
36454;BME280;22478;51.740;-1.314;2023-03-25T00:09:20;98558.01;;;0.38;100.00
36454;BME280;22478;51.740;-1.314;2023-03-25T00:11:49;98565.20;;;0.46;100.00
36454;BME280;22478;51.740;-1.314;2023-03-25T00:14:16;98561.14;;;1.40;100.00
36454;BME280;22478;51.740;-1.314;2023-03-25T00:16:44;98568.60;;;-0.10;100.00
36454;BME280;22478;51.740;-1.314;2023-03-25T00:19:11;98571.89;;;0.54;100.00
36454;BME280;22478;51.740;-1.314;2023-03-25T00:21:38;98579.11;;;-0.85;100.00
36454;BME280;22478;51.740;-1.314;2023-03-25T00:24:05;98581.87;;;-0.52;100.00
36454;BME280;22478;51.740;-1.314;2023-03-25T00:26:33;98576.05;;;1.47;100.00
36454;BME280;22478;51.740;-1.314;2023-03-25T00:29:00;98571.88;;;1.44;100.00
36454;BME280;22478;51.740;-1.314;2023-03-25T00:31:27;98579.10;;;0.57;100.00
36454;BME280;22478;51.740;-1.314;2023-03-25T00:33:55;98575.15;;;-0.14;100.00
36454;BME280;22478;51.740;-1.314;2023-03-25T00:36:22;98586.29;;;1.39;100.00
36454;BME280;22478;51.740;-1.314;2023-03-25T00:38:50;98575.68;;;1.26;100.00
36454;BME280;22478;51.740;-1.314;2023-03-25T00:41:18;98570.51;;;0.50;100.00
36454;BME280;22478;51.740;-1.314;2023-03-25T00:43:47;98568.45;;;0.78;100.00
36454;BME280;22478;51.740;-1.314;2023-03-25T00:46:14;98574.94;;;0.47;100.00
36454;BME280;22478;51.740;-1.314;2023-03-25T00:48:41;98571.22;;;-0.67;100.00
36454;BME280;22478;51.740;-1.314;2023-03-25T00:51:09;98573.69;;;0.37;100.00
36454;BME280;22478;51.740;-1.314;2023-03-25T00:53:36;98585.93;;;-0.21;100.00
36454;BME280;22478;51.740;-1.314;2023-03-25T00:56:04;98577.72;;;-0.24;100.00
36454;BME280;22478;51.740;-1.314;2023-03-25T00:58:31;98578.89;;;0.21;100.00
36454;BME280;22478;51.740;-1.314;2023-03-25T01:00:58;98584.32;;;-0.17;100.00
36454;BME280;22478;51.740;-1.314;2023-03-25T01:03:26;98587.76;;;-0.94;100.00
36454;BME280;22478;51.740;-1.314;2023-03-25T01:05:54;98585.23;;;0.35;100.00
36454;BME280;22478;51.740;-1.314;2023-03-25T01:08:22;98591.31;;;0.36;100.00
36454;BME280;22478;51.740;-1.314;2023-03-25T01:10:51;98589.62;;;-0.40;100.00
36454;BME280;22478;51.740;-1.314;2023-03-25T01:13:20;98595.37;;;-0.52;100.00
36454;BME280;22478;51.740;-1.314;2023-03-25T01:15:48;98586.35;;;0.98;100.00
36454;BME280;22478;51.740;-1.314;2023-03-25T01:18:15;98584.86;;;1.40;100.00
36454;BME280;22478;51.740;-1.314;2023-03-25T01:20:43;98586.91;;;0.32;100.00
36454;BME280;22478;51.740;-1.314;2023-03-25T01:23:10;98592.15;;;-0.23;100.00
36454;BME280;22478;51.740;-1.314;2023-03-25T01:25:38;98585.60;;;0.53;100.00
36454;BME280;22478;51.740;-1.314;2023-03-25T01:28:05;98587.99;;;0.81;100.00
36454;BME280;22478;51.740;-1.314;2023-03-25T01:30:32;98587.43;;;0.92;100.00
36454;BME280;22478;51.740;-1.314;2023-03-25T01:32:59;98587.53;;;-0.83;100.00
36454;BME280;22478;51.740;-1.314;2023-03-25T01:35:26;98605.00;;;-0.14;100.00
36454;BME280;22478;51.740;-1.314;2023-03-25T01:37:53;98601.44;;;-0.06;100.00
36454;BME280;22478;51.740;-1.314;2023-03-25T01:40:22;98602.24;;;0.35;100.00
36454;BME280;22478;51.740;-1.314;2023-03-25T01:42:50;98595.05;;;0.86;100.00
36454;BME280;22478;51.740;-1.314;2023-03-25T01:45:22;98606.83;;;-0.99;100.00
36454;BME280;22478;51.740;-1.314;2023-03-25T01:47:56;98606.63;;;-0.84;100.00
36454;BME280;22478;51.740;-1.314;2023-03-25T01:50:24;98602.08;;;-0.95;100.00
36454;BME280;22478;51.740;-1.314;2023-03-25T01:52:51;98593.47;;;0.39;100.00
36454;BME280;22478;51.740;-1.314;2023-03-25T01:55:18;98590.24;;;0.79;100.00
36454;BME280;22478;51.740;-1.314;2023-03-25T01:57:46;98603.63;;;-1.07;100.00
36454;BME280;22478;51.740;-1.314;2023-03-25T02:00:15;98592.03;;;0.20;100.00
36454;BME280;22478;51.740;-1.314;2023-03-25T02:02:43;98586.99;;;-0.45;100.00
36454;BME280;22478;51.740;-1.314;2023-03-25T02:05:16;98593.58;;;0.22;100.00
36454;BME280;22478;51.740;-1.314;2023-03-25T02:07:47;98585.51;;;-0.65;100.00
36454;BME280;22478;51.740;-1.314;2023-03-25T02:10:16;98588.06;;;0.80;100.00
36454;BME280;22478;51.740;-1.314;2023-03-25T02:12:44;98590.87;;;-0.35;100.00
36454;BME280;22478;51.740;-1.314;2023-03-25T02:15:14;98585.03;;;0.89;100.00
36454;BME280;22478;51.740;-1.314;2023-03-25T02:17:53;98582.45;;;0.01;100.00
36454;BME280;22478;51.740;-1.314;2023-03-25T02:20:36;98593.42;;;-0.93;100.00
36454;BME280;22478;51.740;-1.314;2023-03-25T02:23:27;98586.51;;;-0.36;100.00
36454;BME280;22478;51.740;-1.314;2023-03-25T02:27:16;98588.08;;;-0.86;100.00
36454;BME280;22478;51.740;-1.314;2023-03-25T02:29:57;98609.50;;;0.16;100.00
36454;BME280;22478;51.740;-1.314;2023-03-25T02:32:44;98605.96;;;-0.20;100.00
36454;BME280;22478;51.740;-1.314;2023-03-25T02:35:28;98615.97;;;-0.25;100.00
36454;BME280;22478;51.740;-1.314;2023-03-25T02:38:18;98603.88;;;0.02;100.00
36454;BME280;22478;51.740;-1.314;2023-03-25T02:40:53;98602.49;;;-0.15;100.00
36454;BME280;22478;51.740;-1.314;2023-03-25T02:43:25;98600.58;;;0.11;100.00
36454;BME280;22478;51.740;-1.314;2023-03-25T02:45:58;98603.86;;;-0.21;100.00
36454;BME280;22478;51.740;-1.314;2023-03-25T02:48:29;98600.80;;;0.24;100.00
36454;BME280;22478;51.740;-1.314;2023-03-25T02:51:03;98604.10;;;-1.34;100.00
36454;BME280;22478;51.740;-1.314;2023-03-25T02:53:34;98603.31;;;-0.02;100.00
36454;BME280;22478;51.740;-1.314;2023-03-25T02:56:05;98612.87;;;-0.81;100.00
36454;BME280;22478;51.740;-1.314;2023-03-25T02:58:33;98615.63;;;-0.46;100.00
36454;BME280;22478;51.740;-1.314;2023-03-25T03:01:01;98610.91;;;-0.76;100.00
36454;BME280;22478;51.740;-1.314;2023-03-25T03:03:28;98616.58;;;-0.79;100.00
36454;BME280;22478;51.740;-1.314;2023-03-25T03:05:57;98609.97;;;0.13;100.00
36454;BME280;22478;51.740;-1.314;2023-03-25T03:08:36;98614.34;;;-0.05;100.00
36454;BME280;22478;51.740;-1.314;2023-03-25T03:11:12;98612.97;;;-1.00;100.00
36454;BME280;22478;51.740;-1.314;2023-03-25T03:13:55;98607.01;;;-0.43;100.00
36454;BME280;22478;51.740;-1.314;2023-03-25T03:16:32;98604.16;;;-0.59;100.00
36454;BME280;22478;51.740;-1.314;2023-03-25T03:19:09;98633.75;;;-1.51;100.00
36454;BME280;22478;51.740;-1.314;2023-03-25T03:21:43;98618.35;;;-0.54;100.00
36454;BME280;22478;51.740;-1.314;2023-03-25T03:24:18;98623.37;;;-0.97;100.00
36454;BME280;22478;51.740;-1.314;2023-03-25T03:26:50;98627.50;;;-0.71;100.00
36454;BME280;22478;51.740;-1.314;2023-03-25T03:29:24;98636.06;;;-0.45;100.00
36454;BME280;22478;51.740;-1.314;2023-03-25T03:31:58;98634.48;;;-1.47;100.00
36454;BME280;22478;51.740;-1.314;2023-03-25T03:34:30;98644.85;;;-0.34;100.00
36454;BME280;22478;51.740;-1.314;2023-03-25T03:37:00;98648.43;;;-0.48;100.00
36454;BME280;22478;51.740;-1.314;2023-03-25T03:39:31;98646.48;;;-0.57;100.00
36454;BME280;22478;51.740;-1.314;2023-03-25T03:42:06;98642.97;;;0.21;100.00
36454;BME280;22478;51.740;-1.314;2023-03-25T03:44:37;98645.38;;;0.16;100.00
36454;BME280;22478;51.740;-1.314;2023-03-25T03:47:10;98648.87;;;-0.23;100.00
36454;BME280;22478;51.740;-1.314;2023-03-25T03:49:42;98645.09;;;0.27;100.00
36454;BME280;22478;51.740;-1.314;2023-03-25T03:52:13;98660.63;;;0.81;100.00
36454;BME280;22478;51.740;-1.314;2023-03-25T03:54:46;98661.56;;;-0.04;100.00
36454;BME280;22478;51.740;-1.314;2023-03-25T03:57:19;98661.96;;;-0.04;100.00
36454;BME280;22478;51.740;-1.314;2023-03-25T03:59:52;98662.97;;;0.61;100.00
36454;BME280;22478;51.740;-1.314;2023-03-25T04:02:27;98669.74;;;-0.57;100.00
36454;BME280;22478;51.740;-1.314;2023-03-25T04:04:57;98662.99;;;-0.27;100.00
36454;BME280;22478;51.740;-1.314;2023-03-25T04:07:32;98674.63;;;0.67;100.00
36454;BME280;22478;51.740;-1.314;2023-03-25T04:10:08;98666.78;;;-0.19;100.00
36454;BME280;22478;51.740;-1.314;2023-03-25T04:12:40;98672.66;;;0.32;100.00
36454;BME280;22478;51.740;-1.314;2023-03-25T04:15:10;98672.66;;;0.09;100.00
36454;BME280;22478;51.740;-1.314;2023-03-25T04:17:38;98683.47;;;0.75;100.00
36454;BME280;22478;51.740;-1.314;2023-03-25T04:20:06;98688.92;;;0.50;100.00
36454;BME280;22478;51.740;-1.314;2023-03-25T04:22:33;98692.15;;;-0.44;100.00
36454;BME280;22478;51.740;-1.314;2023-03-25T04:25:01;98701.39;;;0.24;100.00
36454;BME280;22478;51.740;-1.314;2023-03-25T04:27:28;98699.71;;;-0.70;100.00
36454;BME280;22478;51.740;-1.314;2023-03-25T04:29:56;98698.31;;;-0.39;100.00
36454;BME280;22478;51.740;-1.314;2023-03-25T04:32:23;98699.58;;;1.13;100.00
36454;BME280;22478;51.740;-1.314;2023-03-25T04:34:50;98694.33;;;1.27;100.00
36454;BME280;22478;51.740;-1.314;2023-03-25T04:37:17;98700.00;;;0.25;100.00
36454;BME280;22478;51.740;-1.314;2023-03-25T04:39:45;98710.53;;;0.85;100.00
36454;BME280;22478;51.740;-1.314;2023-03-25T04:42:12;98708.49;;;-0.72;100.00
36454;BME280;22478;51.740;-1.314;2023-03-25T04:44:39;98703.57;;;0.25;100.00
36454;BME280;22478;51.740;-1.314;2023-03-25T04:47:08;98684.76;;;-0.98;100.00
36454;BME280;22478;51.740;-1.314;2023-03-25T04:49:38;98704.77;;;0.17;100.00
36454;BME280;22478;51.740;-1.314;2023-03-25T04:52:06;98705.46;;;-0.11;100.00
36454;BME280;22478;51.740;-1.314;2023-03-25T04:54:33;98697.35;;;0.26;100.00
36454;BME280;22478;51.740;-1.314;2023-03-25T04:57:01;98710.22;;;0.18;100.00
36454;BME280;22478;51.740;-1.314;2023-03-25T04:59:28;98694.48;;;0.58;100.00
36454;BME280;22478;51.740;-1.314;2023-03-25T05:01:56;98702.53;;;0.03;100.00
36454;BME280;22478;51.740;-1.314;2023-03-25T05:04:23;98715.60;;;0.63;100.00
36454;BME280;22478;51.740;-1.314;2023-03-25T05:06:50;98723.27;;;0.52;100.00
36454;BME280;22478;51.740;-1.314;2023-03-25T05:09:19;98716.06;;;0.72;100.00
36454;BME280;22478;51.740;-1.314;2023-03-25T05:11:47;98719.81;;;-0.22;100.00
36454;BME280;22478;51.740;-1.314;2023-03-25T05:14:16;98712.87;;;0.58;100.00
36454;BME280;22478;51.740;-1.314;2023-03-25T05:16:45;98719.47;;;0.73;100.00
36454;BME280;22478;51.740;-1.314;2023-03-25T05:19:13;98724.84;;;0.60;100.00
36454;BME280;22478;51.740;-1.314;2023-03-25T05:21:42;98723.65;;;0.38;100.00
36454;BME280;22478;51.740;-1.314;2023-03-25T05:24:10;98720.53;;;1.24;100.00
36454;BME280;22478;51.740;-1.314;2023-03-25T05:26:40;98722.06;;;-0.75;100.00
36454;BME280;22478;51.740;-1.314;2023-03-25T05:29:08;98719.58;;;0.75;100.00
36454;BME280;22478;51.740;-1.314;2023-03-25T05:31:36;98723.55;;;-0.44;100.00
36454;BME280;22478;51.740;-1.314;2023-03-25T05:34:02;98723.43;;;-0.54;100.00
36454;BME280;22478;51.740;-1.314;2023-03-25T05:36:29;98733.96;;;-0.13;100.00
36454;BME280;22478;51.740;-1.314;2023-03-25T05:38:56;98728.72;;;-0.27;100.00
36454;BME280;22478;51.740;-1.314;2023-03-25T05:41:26;98726.84;;;0.61;100.00
36454;BME280;22478;51.740;-1.314;2023-03-25T05:43:53;98739.57;;;0.12;100.00
36454;BME280;22478;51.740;-1.314;2023-03-25T05:46:20;98743.26;;;0.09;100.00
36454;BME280;22478;51.740;-1.314;2023-03-25T05:48:47;98747.13;;;0.03;100.00
36454;BME280;22478;51.740;-1.314;2023-03-25T05:51:17;98754.27;;;0.82;100.00
36454;BME280;22478;51.740;-1.314;2023-03-25T05:53:45;98756.80;;;0.93;100.00
36454;BME280;22478;51.740;-1.314;2023-03-25T05:56:12;98762.78;;;-0.04;100.00
36454;BME280;22478;51.740;-1.314;2023-03-25T05:58:39;98765.68;;;0.50;100.00
36454;BME280;22478;51.740;-1.314;2023-03-25T06:01:08;98769.14;;;0.81;100.00
36454;BME280;22478;51.740;-1.314;2023-03-25T06:03:36;98774.78;;;0.87;100.00
36454;BME280;22478;51.740;-1.314;2023-03-25T06:06:04;98769.32;;;0.77;100.00
36454;BME280;22478;51.740;-1.314;2023-03-25T06:08:32;98779.44;;;0.76;100.00
36454;BME280;22478;51.740;-1.314;2023-03-25T06:10:59;98772.16;;;0.21;100.00
36454;BME280;22478;51.740;-1.314;2023-03-25T06:13:27;98782.82;;;0.39;100.00
36454;BME280;22478;51.740;-1.314;2023-03-25T06:15:54;98784.77;;;0.48;100.00
36454;BME280;22478;51.740;-1.314;2023-03-25T06:18:22;98796.35;;;0.41;100.00
36454;BME280;22478;51.740;-1.314;2023-03-25T06:20:50;98792.46;;;1.40;100.00
36454;BME280;22478;51.740;-1.314;2023-03-25T06:23:18;98806.82;;;0.36;100.00
36454;BME280;22478;51.740;-1.314;2023-03-25T06:25:45;98811.44;;;0.72;100.00
36454;BME280;22478;51.740;-1.314;2023-03-25T06:28:13;98825.85;;;-0.55;100.00
36454;BME280;22478;51.740;-1.314;2023-03-25T06:30:40;98823.63;;;0.33;100.00
36454;BME280;22478;51.740;-1.314;2023-03-25T06:33:08;98821.04;;;-0.03;100.00
36454;BME280;22478;51.740;-1.314;2023-03-25T06:35:36;98818.59;;;0.41;100.00
36454;BME280;22478;51.740;-1.314;2023-03-25T06:38:03;98814.17;;;-0.27;100.00
36454;BME280;22478;51.740;-1.314;2023-03-25T06:40:31;98814.24;;;0.64;100.00
36454;BME280;22478;51.740;-1.314;2023-03-25T06:42:58;98830.41;;;0.72;100.00
36454;BME280;22478;51.740;-1.314;2023-03-25T06:45:25;98828.95;;;-0.67;100.00
36454;BME280;22478;51.740;-1.314;2023-03-25T06:47:53;98830.18;;;-0.35;100.00
36454;BME280;22478;51.740;-1.314;2023-03-25T06:50:20;98839.47;;;0.42;100.00
36454;BME280;22478;51.740;-1.314;2023-03-25T06:52:48;98838.56;;;1.05;100.00
36454;BME280;22478;51.740;-1.314;2023-03-25T06:55:15;98827.94;;;0.50;100.00
36454;BME280;22478;51.740;-1.314;2023-03-25T06:57:42;98840.27;;;1.48;100.00
36454;BME280;22478;51.740;-1.314;2023-03-25T07:00:11;98851.82;;;-0.42;100.00
36454;BME280;22478;51.740;-1.314;2023-03-25T07:02:38;98849.69;;;0.35;100.00
36454;BME280;22478;51.740;-1.314;2023-03-25T07:05:06;98852.97;;;0.78;100.00
36454;BME280;22478;51.740;-1.314;2023-03-25T07:07:33;98858.72;;;0.74;100.00
36454;BME280;22478;51.740;-1.314;2023-03-25T07:10:01;98861.35;;;0.65;100.00
36454;BME280;22478;51.740;-1.314;2023-03-25T07:12:28;98851.89;;;0.55;100.00
36454;BME280;22478;51.740;-1.314;2023-03-25T07:14:56;98863.59;;;1.03;100.00
36454;BME280;22478;51.740;-1.314;2023-03-25T07:17:23;98879.25;;;0.10;100.00
36454;BME280;22478;51.740;-1.314;2023-03-25T07:19:50;98874.12;;;1.43;100.00
36454;BME280;22478;51.740;-1.314;2023-03-25T07:22:18;98882.68;;;0.82;100.00
36454;BME280;22478;51.740;-1.314;2023-03-25T07:24:45;98880.23;;;0.55;100.00
36454;BME280;22478;51.740;-1.314;2023-03-25T07:27:14;98886.73;;;0.62;100.00
36454;BME280;22478;51.740;-1.314;2023-03-25T07:29:41;98890.88;;;0.06;100.00
36454;BME280;22478;51.740;-1.314;2023-03-25T07:32:08;98900.68;;;-0.32;100.00
36454;BME280;22478;51.740;-1.314;2023-03-25T07:34:36;98893.87;;;-0.34;100.00
36454;BME280;22478;51.740;-1.314;2023-03-25T07:37:03;98894.84;;;0.92;100.00
36454;BME280;22478;51.740;-1.314;2023-03-25T07:39:31;98899.34;;;0.61;100.00
36454;BME280;22478;51.740;-1.314;2023-03-25T07:41:59;98909.88;;;0.01;100.00
36454;BME280;22478;51.740;-1.314;2023-03-25T07:44:26;98909.43;;;-0.37;100.00
36454;BME280;22478;51.740;-1.314;2023-03-25T07:46:53;98917.13;;;-0.28;100.00
36454;BME280;22478;51.740;-1.314;2023-03-25T07:49:20;98916.66;;;0.01;100.00
36454;BME280;22478;51.740;-1.314;2023-03-25T07:51:47;98914.68;;;0.40;100.00
36454;BME280;22478;51.740;-1.314;2023-03-25T07:54:15;98927.28;;;0.21;100.00
36454;BME280;22478;51.740;-1.314;2023-03-25T07:56:42;98929.70;;;0.10;100.00
36454;BME280;22478;51.740;-1.314;2023-03-25T07:59:08;98937.05;;;0.66;100.00
36454;BME280;22478;51.740;-1.314;2023-03-25T08:01:36;98926.30;;;0.95;100.00
36454;BME280;22478;51.740;-1.314;2023-03-25T08:04:03;98930.51;;;2.17;100.00
36454;BME280;22478;51.740;-1.314;2023-03-25T08:06:31;98930.62;;;2.21;100.00
36454;BME280;22478;51.740;-1.314;2023-03-25T08:08:59;98926.98;;;2.56;100.00
36454;BME280;22478;51.740;-1.314;2023-03-25T08:11:26;98930.46;;;1.70;100.00
36454;BME280;22478;51.740;-1.314;2023-03-25T08:13:53;98937.55;;;2.90;100.00
36454;BME280;22478;51.740;-1.314;2023-03-25T08:16:20;98937.70;;;3.27;100.00
36454;BME280;22478;51.740;-1.314;2023-03-25T08:18:47;98931.23;;;3.51;100.00
36454;BME280;22478;51.740;-1.314;2023-03-25T08:21:15;98950.81;;;1.79;100.00
36454;BME280;22478;51.740;-1.314;2023-03-25T08:23:42;98951.04;;;4.83;100.00
36454;BME280;22478;51.740;-1.314;2023-03-25T08:26:09;98950.06;;;3.36;100.00
36454;BME280;22478;51.740;-1.314;2023-03-25T08:28:36;98958.87;;;4.87;100.00
36454;BME280;22478;51.740;-1.314;2023-03-25T08:31:05;98962.90;;;2.98;100.00
36454;BME280;22478;51.740;-1.314;2023-03-25T08:33:33;98966.03;;;3.47;100.00
36454;BME280;22478;51.740;-1.314;2023-03-25T08:36:01;98967.00;;;3.37;100.00
36454;BME280;22478;51.740;-1.314;2023-03-25T08:38:28;98976.57;;;3.73;100.00
36454;BME280;22478;51.740;-1.314;2023-03-25T08:40:56;98981.15;;;4.17;100.00
36454;BME280;22478;51.740;-1.314;2023-03-25T08:43:24;98988.32;;;2.41;100.00
36454;BME280;22478;51.740;-1.314;2023-03-25T08:45:51;98993.75;;;1.74;100.00
36454;BME280;22478;51.740;-1.314;2023-03-25T08:48:19;98999.32;;;2.02;100.00
36454;BME280;22478;51.740;-1.314;2023-03-25T08:50:46;98991.55;;;2.57;100.00
36454;BME280;22478;51.740;-1.314;2023-03-25T08:53:14;99003.15;;;1.97;100.00
36454;BME280;22478;51.740;-1.314;2023-03-25T08:55:41;99005.25;;;3.02;100.00
36454;BME280;22478;51.740;-1.314;2023-03-25T08:58:09;99001.19;;;1.82;100.00
36454;BME280;22478;51.740;-1.314;2023-03-25T09:00:36;99006.15;;;2.27;100.00
36454;BME280;22478;51.740;-1.314;2023-03-25T09:03:04;99010.99;;;1.64;100.00
36454;BME280;22478;51.740;-1.314;2023-03-25T09:05:31;99008.94;;;2.31;100.00
36454;BME280;22478;51.740;-1.314;2023-03-25T09:07:59;99017.27;;;2.33;100.00
36454;BME280;22478;51.740;-1.314;2023-03-25T09:10:26;99009.91;;;3.31;100.00
36454;BME280;22478;51.740;-1.314;2023-03-25T09:12:53;99017.88;;;2.67;100.00
36454;BME280;22478;51.740;-1.314;2023-03-25T09:15:21;99028.16;;;1.47;100.00
36454;BME280;22478;51.740;-1.314;2023-03-25T09:17:49;99030.42;;;1.57;100.00
36454;BME280;22478;51.740;-1.314;2023-03-25T09:20:16;99029.76;;;2.50;100.00
36454;BME280;22478;51.740;-1.314;2023-03-25T09:22:43;99026.90;;;2.35;100.00
36454;BME280;22478;51.740;-1.314;2023-03-25T09:25:11;99028.38;;;3.04;100.00
36454;BME280;22478;51.740;-1.314;2023-03-25T09:27:38;99035.13;;;2.21;100.00
36454;BME280;22478;51.740;-1.314;2023-03-25T09:30:07;99036.85;;;2.20;100.00
36454;BME280;22478;51.740;-1.314;2023-03-25T09:32:35;99044.95;;;3.05;100.00
36454;BME280;22478;51.740;-1.314;2023-03-25T09:35:02;99040.11;;;2.52;100.00
36454;BME280;22478;51.740;-1.314;2023-03-25T09:37:30;99048.33;;;2.68;100.00
36454;BME280;22478;51.740;-1.314;2023-03-25T09:39:57;99048.46;;;2.73;100.00
36454;BME280;22478;51.740;-1.314;2023-03-25T09:42:35;99041.42;;;3.19;100.00
36454;BME280;22478;51.740;-1.314;2023-03-25T09:45:14;99048.54;;;4.29;100.00
36454;BME280;22478;51.740;-1.314;2023-03-25T09:47:52;99053.50;;;3.66;100.00
36454;BME280;22478;51.740;-1.314;2023-03-25T09:50:21;99048.93;;;3.16;100.00
36454;BME280;22478;51.740;-1.314;2023-03-25T09:52:53;99055.77;;;3.84;100.00
36454;BME280;22478;51.740;-1.314;2023-03-25T09:55:26;99063.46;;;2.83;100.00
36454;BME280;22478;51.740;-1.314;2023-03-25T09:58:00;99057.80;;;4.62;100.00
36454;BME280;22478;51.740;-1.314;2023-03-25T10:00:29;99062.02;;;5.58;100.00
36454;BME280;22478;51.740;-1.314;2023-03-25T10:03:06;99058.30;;;6.23;100.00
36454;BME280;22478;51.740;-1.314;2023-03-25T10:05:47;99070.58;;;5.31;100.00
36454;BME280;22478;51.740;-1.314;2023-03-25T10:08:23;99082.70;;;5.95;100.00
36454;BME280;22478;51.740;-1.314;2023-03-25T10:11:01;99086.56;;;7.46;100.00
36454;BME280;22478;51.740;-1.314;2023-03-25T10:13:39;99088.63;;;7.29;100.00
36454;BME280;22478;51.740;-1.314;2023-03-25T10:16:12;99099.20;;;6.05;100.00
36454;BME280;22478;51.740;-1.314;2023-03-25T10:18:54;99105.25;;;4.45;100.00
36454;BME280;22478;51.740;-1.314;2023-03-25T10:21:29;99111.13;;;5.49;100.00
36454;BME280;22478;51.740;-1.314;2023-03-25T10:24:05;99118.27;;;5.60;100.00
36454;BME280;22478;51.740;-1.314;2023-03-25T10:26:44;99122.52;;;5.80;100.00
36454;BME280;22478;51.740;-1.314;2023-03-25T10:29:15;99134.07;;;5.20;100.00
36454;BME280;22478;51.740;-1.314;2023-03-25T10:31:52;99139.56;;;4.93;100.00
36454;BME280;22478;51.740;-1.314;2023-03-25T10:34:24;99139.58;;;3.61;100.00
36454;BME280;22478;51.740;-1.314;2023-03-25T10:36:57;99151.43;;;4.08;100.00
36454;BME280;22478;51.740;-1.314;2023-03-25T10:39:28;99146.52;;;6.03;100.00
36454;BME280;22478;51.740;-1.314;2023-03-25T10:42:02;99159.89;;;4.10;100.00
36454;BME280;22478;51.740;-1.314;2023-03-25T10:44:30;99167.16;;;5.08;100.00
36454;BME280;22478;51.740;-1.314;2023-03-25T10:47:00;99167.29;;;4.30;100.00
36454;BME280;22478;51.740;-1.314;2023-03-25T10:49:30;99174.22;;;4.87;100.00
36454;BME280;22478;51.740;-1.314;2023-03-25T10:51:58;99162.90;;;8.27;100.00
36454;BME280;22478;51.740;-1.314;2023-03-25T10:54:29;99160.94;;;7.62;100.00
36454;BME280;22478;51.740;-1.314;2023-03-25T10:57:00;99175.83;;;5.93;100.00
36454;BME280;22478;51.740;-1.314;2023-03-25T10:59:32;99174.27;;;6.94;100.00
36454;BME280;22478;51.740;-1.314;2023-03-25T11:02:01;99173.78;;;8.30;100.00
36454;BME280;22478;51.740;-1.314;2023-03-25T11:04:33;99169.59;;;7.81;100.00
36454;BME280;22478;51.740;-1.314;2023-03-25T11:07:15;99169.31;;;6.57;100.00
36454;BME280;22478;51.740;-1.314;2023-03-25T11:09:44;99177.23;;;7.78;100.00
36454;BME280;22478;51.740;-1.314;2023-03-25T11:12:17;99173.48;;;7.04;100.00
36454;BME280;22478;51.740;-1.314;2023-03-25T11:14:53;99168.78;;;8.69;100.00
36454;BME280;22478;51.740;-1.314;2023-03-25T11:17:21;99177.88;;;7.77;100.00
36454;BME280;22478;51.740;-1.314;2023-03-25T11:19:52;99190.19;;;7.55;100.00
36454;BME280;22478;51.740;-1.314;2023-03-25T11:22:23;99184.96;;;10.33;96.51
36454;BME280;22478;51.740;-1.314;2023-03-25T11:24:58;99188.56;;;7.11;100.00
36454;BME280;22478;51.740;-1.314;2023-03-25T11:27:27;99186.76;;;6.70;100.00
36454;BME280;22478;51.740;-1.314;2023-03-25T11:29:58;99197.93;;;7.10;100.00
36454;BME280;22478;51.740;-1.314;2023-03-25T11:32:32;99199.80;;;7.49;100.00
36454;BME280;22478;51.740;-1.314;2023-03-25T11:35:06;99215.53;;;6.84;100.00
36454;BME280;22478;51.740;-1.314;2023-03-25T11:37:43;99220.52;;;8.28;100.00
36454;BME280;22478;51.740;-1.314;2023-03-25T11:40:14;99211.85;;;8.31;100.00
36454;BME280;22478;51.740;-1.314;2023-03-25T11:42:43;99204.67;;;11.57;96.17
36454;BME280;22478;51.740;-1.314;2023-03-25T11:45:20;99215.70;;;8.85;100.00
36454;BME280;22478;51.740;-1.314;2023-03-25T11:47:48;99221.88;;;8.57;100.00
36454;BME280;22478;51.740;-1.314;2023-03-25T11:50:22;99219.57;;;7.53;100.00
36454;BME280;22478;51.740;-1.314;2023-03-25T11:52:53;99226.00;;;8.15;100.00
36454;BME280;22478;51.740;-1.314;2023-03-25T11:55:24;99221.28;;;7.46;100.00
36454;BME280;22478;51.740;-1.314;2023-03-25T11:57:54;99219.90;;;11.14;93.54
36454;BME280;22478;51.740;-1.314;2023-03-25T12:00:31;99226.00;;;8.96;94.09
36454;BME280;22478;51.740;-1.314;2023-03-25T12:03:01;99231.41;;;8.01;98.76
36454;BME280;22478;51.740;-1.314;2023-03-25T12:05:30;99243.46;;;5.42;100.00
36454;BME280;22478;51.740;-1.314;2023-03-25T12:08:11;99239.33;;;8.12;100.00
36454;BME280;22478;51.740;-1.314;2023-03-25T12:10:48;99233.09;;;7.64;100.00
36454;BME280;22478;51.740;-1.314;2023-03-25T12:13:26;99224.63;;;10.19;94.79
36454;BME280;22478;51.740;-1.314;2023-03-25T12:16:08;99237.94;;;6.96;100.00
36454;BME280;22478;51.740;-1.314;2023-03-25T12:18:47;99238.04;;;6.90;100.00
36454;BME280;22478;51.740;-1.314;2023-03-25T12:21:28;99238.05;;;5.79;100.00
36454;BME280;22478;51.740;-1.314;2023-03-25T12:24:10;99245.42;;;5.88;100.00
36454;BME280;22478;51.740;-1.314;2023-03-25T12:26:49;99231.25;;;5.38;100.00
36454;BME280;22478;51.740;-1.314;2023-03-25T12:29:30;99240.74;;;6.84;100.00
36454;BME280;22478;51.740;-1.314;2023-03-25T12:32:10;99234.36;;;6.35;100.00
36454;BME280;22478;51.740;-1.314;2023-03-25T12:34:48;99230.84;;;7.63;100.00
36454;BME280;22478;51.740;-1.314;2023-03-25T12:37:24;99228.08;;;7.36;99.61
36454;BME280;22478;51.740;-1.314;2023-03-25T12:40:16;99238.85;;;6.86;100.00
36454;BME280;22478;51.740;-1.314;2023-03-25T12:42:56;99237.19;;;7.44;100.00
36454;BME280;22478;51.740;-1.314;2023-03-25T12:45:37;99231.43;;;8.24;98.96
36454;BME280;22478;51.740;-1.314;2023-03-25T12:48:12;99237.33;;;8.69;96.36
36454;BME280;22478;51.740;-1.314;2023-03-25T12:50:48;99232.49;;;8.16;99.54
36454;BME280;22478;51.740;-1.314;2023-03-25T12:53:29;99241.09;;;7.35;100.00
36454;BME280;22478;51.740;-1.314;2023-03-25T12:56:10;99244.46;;;8.19;97.90
36454;BME280;22478;51.740;-1.314;2023-03-25T12:58:55;99255.42;;;6.03;100.00
36454;BME280;22478;51.740;-1.314;2023-03-25T13:01:32;99247.03;;;10.38;90.24
36454;BME280;22478;51.740;-1.314;2023-03-25T13:04:12;99248.77;;;8.99;100.00
36454;BME280;22478;51.740;-1.314;2023-03-25T13:06:46;99247.44;;;8.04;100.00